createdAt,value
2022-11-28T11:01:48.830Z,10.26
2022-11-28T11:02:52.429Z,11.49
2022-11-28T11:03:56.023Z,27.94
2022-11-28T11:04:59.133Z,17.53
2022-11-28T11:06:03.261Z,15.04
2022-11-28T11:07:19.416Z,17.15
2022-11-28T11:09:36.143Z,20.51
2022-11-28T11:10:43.666Z,13.19
2022-11-28T11:11:53.622Z,11.73
2022-11-28T11:12:59.082Z,12.80
2022-11-28T11:14:08.063Z,11.46
2022-11-28T11:15:21.166Z,11.29
2022-11-28T11:16:25.340Z,12.66
2022-11-28T11:17:37.912Z,12.11
2022-11-28T11:18:46.379Z,12.50
2022-11-28T11:19:49.979Z,19.11
2022-11-28T11:21:00.172Z,21.95
2022-11-28T11:22:27.289Z,23.83
2022-11-28T11:23:35.232Z,14.00
2022-11-28T11:24:36.012Z,23.55
2022-11-28T11:25:51.312Z,18.16
2022-11-28T11:27:06.000Z,15.88
2022-11-28T11:28:13.239Z,18.46
2022-11-28T11:29:29.218Z,13.84
2022-11-28T11:30:39.761Z,21.24
2022-11-28T11:31:46.242Z,19.74
2022-11-28T11:32:51.668Z,14.95
2022-11-28T11:34:05.076Z,21.06
2022-11-28T11:35:12.831Z,14.48
2022-11-28T11:36:31.956Z,14.18
2022-11-28T11:37:38.474Z,19.46
2022-11-28T11:38:48.250Z,23.22
2022-11-28T11:39:54.636Z,25.83
2022-11-28T11:40:58.283Z,21.38
2022-11-28T11:42:05.723Z,21.63
2022-11-28T11:43:23.796Z,19.12
2022-11-28T11:44:35.822Z,18.66
2022-11-28T11:45:39.662Z,14.03
2022-11-28T11:46:53.938Z,16.58
2022-11-28T11:47:57.197Z,15.52
2022-11-28T11:49:00.747Z,17.56
2022-11-28T11:50:05.789Z,14.81
2022-11-28T11:51:25.044Z,12.47
2022-11-28T11:52:32.263Z,12.08
2022-11-28T11:53:35.921Z,10.77
2022-11-28T11:54:41.824Z,11.64
2022-11-28T11:55:54.165Z,10.01
2022-11-28T11:57:24.925Z,11.68
2022-11-28T11:58:06.281Z,12.04
2022-11-28T11:59:33.025Z,12.48
2022-11-28T12:00:40.643Z,11.03
2022-11-28T12:01:47.956Z,11.48
2022-11-28T12:03:03.602Z,8.90
2022-11-28T12:04:37.132Z,9.58
2022-11-28T12:05:41.526Z,9.13
2022-11-28T12:06:41.015Z,9.18
2022-11-28T12:09:47.253Z,9.52
2022-11-28T12:10:56.632Z,10.27
2022-11-28T12:12:04.161Z,9.77
2022-11-28T12:13:12.649Z,10.83
2022-11-28T12:14:35.561Z,10.09
2022-11-28T12:16:00.307Z,10.12
2022-11-28T12:19:01.615Z,11.40
2022-11-28T12:20:27.260Z,9.93
2022-11-28T12:21:46.237Z,7.16
2022-11-28T12:23:02.602Z,9.27
2022-11-28T12:24:12.421Z,9.16
2022-11-28T12:25:23.593Z,9.30
2022-11-28T12:26:45.339Z,9.67
2022-11-28T12:28:05.387Z,11.07
2022-11-28T12:29:22.810Z,10.24
2022-11-28T12:30:39.066Z,11.80
2022-11-28T12:32:02.423Z,12.81
2022-11-28T12:33:27.703Z,13.11
2022-11-28T12:34:59.150Z,14.27
2022-11-28T12:36:12.260Z,14.09
2022-11-28T12:38:02.763Z,13.39
2022-11-28T12:38:54.258Z,13.74
2022-11-28T12:40:17.028Z,10.23
2022-11-28T12:41:50.959Z,13.08
2022-11-28T12:43:12.205Z,11.58
2022-11-28T13:09:12.507Z,10.33
2022-11-28T13:10:25.727Z,8.94
2022-11-28T20:28:57.511Z,34.60
2022-11-28T20:30:02.572Z,27.11
2022-11-28T20:31:09.005Z,34.80
2022-11-28T20:32:12.883Z,38.14
2022-11-28T20:33:15.486Z,29.44
2022-11-28T20:34:18.067Z,28.02
2022-11-28T20:35:22.586Z,29.54
2022-11-28T20:36:27.888Z,34.02
2022-11-28T20:37:32.649Z,30.63
2022-11-28T20:38:36.840Z,34.62
2022-11-28T20:39:40.184Z,29.32
2022-11-28T20:40:45.475Z,27.31
2022-11-28T20:41:48.151Z,37.89
2022-11-28T20:42:53.197Z,25.79
2022-11-28T20:44:00.120Z,30.96
2022-11-28T20:45:08.596Z,26.97
2022-11-28T20:46:15.928Z,29.12
2022-11-28T20:47:19.582Z,29.33
2022-11-28T20:48:23.155Z,31.40
2022-11-28T20:49:26.580Z,27.91
2022-11-28T20:50:31.831Z,23.86
2022-11-28T20:51:37.215Z,26.77
2022-11-28T20:52:41.014Z,24.41
2022-11-28T20:53:46.117Z,23.79
2022-11-28T20:54:49.600Z,23.19
2022-11-28T20:56:01.012Z,22.81
2022-11-28T20:57:21.416Z,18.42
2022-11-28T20:58:12.672Z,20.92
2022-11-28T20:59:17.679Z,22.39
2022-11-28T21:00:26.420Z,19.62
2022-11-28T21:01:37.304Z,15.82
2022-11-28T21:02:40.776Z,15.17
2022-11-28T21:03:47.315Z,13.75
2022-11-28T21:04:50.987Z,12.01
2022-11-28T21:05:59.362Z,12.61
2022-11-28T21:06:59.916Z,12.83
2022-11-28T21:08:05.407Z,12.86
2022-11-28T21:09:09.602Z,12.59
2022-11-28T21:10:12.080Z,11.47
2022-11-28T21:11:36.988Z,12.25
2022-11-28T21:12:23.176Z,13.37
2022-11-28T21:13:26.579Z,11.57
2022-11-28T21:14:30.474Z,9.35
2022-11-28T21:15:33.117Z,10.61
2022-11-28T21:16:38.170Z,11.15
2022-11-28T21:17:41.426Z,11.38
2022-11-28T21:18:44.036Z,10.17
2022-11-28T21:19:50.329Z,10.64
2022-11-28T21:20:53.998Z,10.04
2022-11-28T21:21:58.390Z,11.73
2022-11-28T21:23:02.513Z,10.85
2022-11-28T21:24:09.065Z,10.12
2022-11-28T21:25:13.772Z,11.26
2022-11-28T21:26:22.997Z,10.06
2022-11-28T21:28:31.523Z,9.77
2022-11-28T21:29:42.196Z,10.05
2022-11-28T21:30:50.350Z,11.86
2022-11-28T21:31:59.061Z,11.77
2022-11-28T21:33:02.437Z,10.87
2022-11-28T21:34:05.044Z,10.56
2022-11-28T21:35:09.199Z,9.78
2022-11-28T21:36:12.438Z,10.49
2022-11-28T21:37:17.349Z,9.59
2022-11-28T21:38:20.654Z,10.59
2022-11-28T21:39:23.205Z,8.62
2022-11-28T21:40:28.638Z,9.89
2022-11-28T21:41:34.375Z,7.67
2022-11-28T21:42:38.336Z,9.91
2022-11-28T21:43:41.864Z,10.34
2022-11-28T21:44:46.771Z,8.95
2022-11-28T21:45:52.036Z,9.82
2022-11-28T21:46:57.259Z,9.83
2022-11-28T21:48:01.745Z,9.33
2022-11-28T21:49:05.250Z,9.73
2022-11-28T21:50:14.051Z,8.18
2022-11-28T21:51:20.151Z,8.44
2022-11-28T21:52:25.710Z,7.64
2022-11-28T21:53:29.715Z,7.59
2022-11-28T21:54:31.997Z,7.80
2022-11-28T21:55:38.530Z,8.51
2022-11-28T21:56:42.206Z,9.21
2022-11-28T21:57:46.317Z,7.58
2022-11-28T21:58:52.756Z,8.28
2022-11-28T21:59:56.593Z,8.78
2022-11-28T22:01:04.851Z,8.96
2022-11-28T22:02:17.359Z,8.21
2022-11-28T22:03:21.627Z,9.20
2022-11-28T22:04:25.263Z,10.16
2022-11-28T22:05:29.621Z,8.19
2022-11-28T22:06:33.586Z,9.05
2022-11-28T22:07:37.757Z,8.98
2022-11-28T22:08:41.098Z,8.38
2022-11-28T22:09:44.497Z,8.32
2022-11-28T22:10:47.935Z,9.22
2022-11-28T22:11:51.576Z,8.95
2022-11-28T22:12:56.439Z,7.34
2022-11-28T22:14:00.335Z,8.85
2022-11-28T22:15:05.231Z,8.92
2022-11-28T22:16:15.406Z,7.79
2022-11-28T22:17:19.181Z,9.08
2022-11-28T22:18:22.803Z,8.87
2022-11-28T22:19:27.334Z,10.30
2022-11-28T22:20:37.524Z,8.76
2022-11-28T22:21:51.290Z,7.78
2022-11-28T22:22:49.254Z,8.06
2022-11-28T22:23:53.487Z,7.75
2022-11-28T22:24:59.485Z,7.91
2022-11-28T22:26:03.789Z,7.43
2022-11-28T22:27:08.261Z,7.66
2022-11-28T22:28:11.678Z,7.77
2022-11-28T22:29:15.334Z,9.65
2022-11-28T22:30:19.056Z,7.56
2022-11-28T22:31:22.033Z,8.68
2022-11-28T22:32:26.168Z,8.54
2022-11-28T22:33:29.736Z,9.87
2022-11-28T22:34:39.725Z,9.07
2022-11-28T22:35:40.769Z,7.88
2022-11-28T22:36:45.641Z,10.87
2022-11-28T22:37:49.138Z,9.04
2022-11-28T22:38:57.690Z,9.17
2022-11-28T22:40:01.573Z,8.51
2022-11-28T22:41:14.597Z,8.96
2022-11-28T22:42:19.270Z,7.92
2022-11-28T22:43:22.939Z,8.79
2022-11-28T22:44:27.035Z,8.35
2022-11-28T22:45:32.491Z,8.88
2022-11-28T22:46:37.917Z,8.73
2022-11-28T22:47:42.559Z,9.03
2022-11-28T22:48:48.422Z,9.53
2022-11-28T22:49:50.937Z,10.20
2022-11-28T22:50:57.893Z,9.14
2022-11-28T22:52:01.540Z,9.76
2022-11-28T22:53:07.519Z,7.96
2022-11-28T22:55:48.304Z,9.41
2022-11-28T22:56:54.308Z,9.08
2022-11-28T22:58:00.663Z,8.71
2022-11-28T22:59:05.500Z,7.33
2022-11-28T23:00:11.617Z,7.96
2022-11-28T23:01:18.469Z,9.77
2022-11-28T23:02:24.599Z,8.94
2022-11-28T23:03:31.563Z,9.62
2022-11-28T23:04:36.971Z,8.95
2022-11-28T23:05:43.331Z,9.77
2022-11-28T23:06:47.657Z,10.80
2022-11-28T23:07:51.164Z,8.74
2022-11-28T23:08:55.398Z,8.64
2022-11-28T23:10:03.012Z,8.26
2022-11-28T23:11:09.866Z,8.69
2022-11-28T23:12:13.427Z,9.46
2022-11-28T23:13:17.085Z,10.06
2022-11-28T23:14:20.574Z,9.19
2022-11-28T23:15:27.790Z,10.41
2022-11-28T23:16:37.218Z,9.14
2022-11-28T23:17:42.685Z,11.03
2022-11-28T23:18:49.216Z,9.34
2022-11-28T23:19:54.288Z,9.88
2022-11-28T23:21:00.036Z,9.41
2022-11-28T23:22:05.424Z,10.21
2022-11-28T23:23:09.584Z,10.01
2022-11-28T23:24:18.938Z,12.07
2022-11-28T23:25:23.562Z,10.96
2022-11-28T23:26:30.809Z,9.96
2022-11-28T23:27:35.189Z,13.08
2022-11-28T23:28:39.519Z,11.94
2022-11-28T23:29:41.998Z,9.74
2022-11-28T23:30:48.144Z,11.23
2022-11-28T23:31:52.850Z,9.79
2022-11-28T23:32:55.967Z,11.84
2022-11-28T23:34:00.948Z,11.51
2022-11-28T23:35:04.419Z,14.75
2022-11-28T23:36:21.034Z,10.56
2022-11-28T23:37:27.570Z,14.70
2022-11-28T23:38:30.884Z,13.34
2022-11-28T23:39:34.138Z,11.46
2022-11-28T23:40:44.601Z,11.29
2022-11-28T23:41:49.569Z,10.58
2022-11-28T23:42:52.241Z,11.93
2022-11-28T23:43:54.881Z,10.51
2022-11-28T23:44:58.589Z,11.47
2022-11-28T23:46:02.232Z,12.83
2022-11-28T23:47:06.121Z,11.79
2022-11-28T23:48:09.305Z,15.34
2022-11-28T23:49:12.204Z,13.12
2022-11-28T23:50:15.794Z,10.21
2022-11-28T23:51:21.258Z,11.21
2022-11-28T23:52:25.671Z,12.02
2022-11-28T23:53:29.967Z,12.84
2022-11-28T23:54:32.987Z,11.09
